sensor_id;sensor_type;location;lat;lon;timestamp;pressure;altitude;pressure_sealevel;temperature;humidity
56014;BME280;41893;55.868;37.632;2022-07-11T00:02:14;99672.00;;;19.33;100.00
56014;BME280;41893;55.868;37.632;2022-07-11T00:04:41;99678.16;;;19.38;100.00
56014;BME280;41893;55.868;37.632;2022-07-11T00:07:08;99676.22;;;19.39;100.00
56014;BME280;41893;55.868;37.632;2022-07-11T00:09:34;99674.59;;;19.38;100.00
56014;BME280;41893;55.868;37.632;2022-07-11T00:12:00;99679.44;;;19.41;100.00
56014;BME280;41893;55.868;37.632;2022-07-11T00:14:26;99686.56;;;19.42;100.00
56014;BME280;41893;55.868;37.632;2022-07-11T00:16:53;99675.88;;;19.41;100.00
56014;BME280;41893;55.868;37.632;2022-07-11T00:19:19;99686.28;;;19.52;100.00
56014;BME280;41893;55.868;37.632;2022-07-11T00:21:46;99692.25;;;19.46;100.00
56014;BME280;41893;55.868;37.632;2022-07-11T00:24:12;99696.78;;;19.59;100.00
56014;BME280;41893;55.868;37.632;2022-07-11T00:26:38;99689.66;;;19.58;100.00
56014;BME280;41893;55.868;37.632;2022-07-11T00:29:05;99680.91;;;19.56;100.00
56014;BME280;41893;55.868;37.632;2022-07-11T00:31:31;99695.97;;;19.41;100.00
56014;BME280;41893;55.868;37.632;2022-07-11T00:33:57;99700.00;;;19.44;100.00
56014;BME280;41893;55.868;37.632;2022-07-11T00:36:23;99701.94;;;19.34;100.00
56014;BME280;41893;55.868;37.632;2022-07-11T00:38:49;99713.13;;;19.29;100.00
56014;BME280;41893;55.868;37.632;2022-07-11T00:41:15;99717.31;;;19.27;100.00
56014;BME280;41893;55.868;37.632;2022-07-11T00:43:42;99719.94;;;19.49;100.00
56014;BME280;41893;55.868;37.632;2022-07-11T00:46:09;99721.25;;;19.60;100.00
56014;BME280;41893;55.868;37.632;2022-07-11T00:48:36;99705.56;;;19.52;100.00
56014;BME280;41893;55.868;37.632;2022-07-11T00:51:03;99714.13;;;19.59;100.00
56014;BME280;41893;55.868;37.632;2022-07-11T00:53:30;99714.28;;;19.63;100.00
56014;BME280;41893;55.868;37.632;2022-07-11T00:55:56;99686.91;;;19.58;100.00
56014;BME280;41893;55.868;37.632;2022-07-11T00:58:23;99696.47;;;19.60;100.00
56014;BME280;41893;55.868;37.632;2022-07-11T01:00:49;99707.31;;;19.57;100.00
56014;BME280;41893;55.868;37.632;2022-07-11T01:03:15;99701.00;;;19.65;100.00
56014;BME280;41893;55.868;37.632;2022-07-11T01:05:41;99700.38;;;19.68;100.00
56014;BME280;41893;55.868;37.632;2022-07-11T01:08:07;99693.22;;;19.58;100.00
56014;BME280;41893;55.868;37.632;2022-07-11T01:10:34;99691.75;;;19.44;100.00
56014;BME280;41893;55.868;37.632;2022-07-11T01:13:01;99692.72;;;19.39;100.00
56014;BME280;41893;55.868;37.632;2022-07-11T01:15:27;99692.41;;;19.41;100.00
56014;BME280;41893;55.868;37.632;2022-07-11T01:17:52;99709.38;;;19.25;100.00
56014;BME280;41893;55.868;37.632;2022-07-11T01:20:22;99708.72;;;19.20;100.00
56014;BME280;41893;55.868;37.632;2022-07-11T01:22:55;99693.34;;;19.36;100.00
56014;BME280;41893;55.868;37.632;2022-07-11T01:25:22;99693.38;;;19.27;100.00
56014;BME280;41893;55.868;37.632;2022-07-11T01:30:24;99686.56;;;19.42;100.00
56014;BME280;41893;55.868;37.632;2022-07-11T01:32:52;99686.56;;;19.42;100.00
56014;BME280;41893;55.868;37.632;2022-07-11T01:35:18;99682.84;;;19.47;100.00
56014;BME280;41893;55.868;37.632;2022-07-11T01:37:44;99678.81;;;19.44;100.00
56014;BME280;41893;55.868;37.632;2022-07-11T01:40:10;99688.03;;;19.57;100.00
56014;BME280;41893;55.868;37.632;2022-07-11T01:42:36;99682.09;;;19.55;100.00
56014;BME280;41893;55.868;37.632;2022-07-11T01:45:03;99675.41;;;19.47;100.00
56014;BME280;41893;55.868;37.632;2022-07-11T01:47:29;99688.56;;;19.50;100.00
56014;BME280;41893;55.868;37.632;2022-07-11T01:49:55;99685.13;;;19.62;100.00
56014;BME280;41893;55.868;37.632;2022-07-11T01:52:21;99679.94;;;19.60;100.00
56014;BME280;41893;55.868;37.632;2022-07-11T01:54:47;99676.53;;;19.46;100.00
56014;BME280;41893;55.868;37.632;2022-07-11T01:57:14;99664.91;;;19.58;100.00
56014;BME280;41893;55.868;37.632;2022-07-11T01:59:40;99658.91;;;19.56;100.00
56014;BME280;41893;55.868;37.632;2022-07-11T02:02:06;99665.84;;;19.45;100.00
56014;BME280;41893;55.868;37.632;2022-07-11T02:04:31;99669.78;;;19.52;100.00
56014;BME280;41893;55.868;37.632;2022-07-11T02:06:57;99671.53;;;19.57;100.00
56014;BME280;41893;55.868;37.632;2022-07-11T02:09:23;99647.25;;;19.59;100.00
56014;BME280;41893;55.868;37.632;2022-07-11T02:11:49;99655.19;;;19.69;100.00
56014;BME280;41893;55.868;37.632;2022-07-11T02:14:15;99659.88;;;19.77;100.00
56014;BME280;41893;55.868;37.632;2022-07-11T02:16:41;99652.25;;;19.74;100.00
56014;BME280;41893;55.868;37.632;2022-07-11T02:19:27;99636.34;;;19.97;100.00
56014;BME280;41893;55.868;37.632;2022-07-11T02:22:57;99649.81;;;19.81;100.00
56014;BME280;41893;55.868;37.632;2022-07-11T02:26:08;99650.78;;;19.85;100.00
56014;BME280;41893;55.868;37.632;2022-07-11T02:29:13;99649.94;;;19.93;100.00
56014;BME280;41893;55.868;37.632;2022-07-11T02:32:44;99640.06;;;19.92;100.00
56014;BME280;41893;55.868;37.632;2022-07-11T02:36:14;99635.69;;;19.91;100.00
56014;BME280;41893;55.868;37.632;2022-07-11T02:39:45;99628.81;;;20.15;100.00
56014;BME280;41893;55.868;37.632;2022-07-11T02:42:50;99630.63;;;20.11;100.00
56014;BME280;41893;55.868;37.632;2022-07-11T02:46:39;99638.06;;;20.10;100.00
56014;BME280;41893;55.868;37.632;2022-07-11T02:53:57;99634.03;;;20.08;100.00
56014;BME280;41893;55.868;37.632;2022-07-11T02:57:27;99644.53;;;20.14;100.00
56014;BME280;41893;55.868;37.632;2022-07-11T03:00:58;99650.88;;;20.06;100.00
56014;BME280;41893;55.868;37.632;2022-07-11T03:04:29;99649.13;;;20.01;100.00
56014;BME280;41893;55.868;37.632;2022-07-11T03:07:59;99641.03;;;19.96;100.00
56014;BME280;41893;55.868;37.632;2022-07-11T03:11:30;99644.69;;;20.26;100.00
56014;BME280;41893;55.868;37.632;2022-07-11T03:15:01;99646.63;;;20.17;100.00
56014;BME280;41893;55.868;37.632;2022-07-11T03:18:12;99655.41;;;20.11;100.00
56014;BME280;41893;55.868;37.632;2022-07-11T03:20:38;99641.47;;;20.16;100.00
56014;BME280;41893;55.868;37.632;2022-07-11T03:23:04;99640.16;;;20.13;100.00
56014;BME280;41893;55.868;37.632;2022-07-11T03:25:29;99621.88;;;20.09;100.00
56014;BME280;41893;55.868;37.632;2022-07-11T03:27:55;99634.97;;;20.20;100.00
56014;BME280;41893;55.868;37.632;2022-07-11T03:30:21;99632.63;;;20.31;100.00
56014;BME280;41893;55.868;37.632;2022-07-11T03:32:47;99634.41;;;20.35;100.00
56014;BME280;41893;55.868;37.632;2022-07-11T03:35:12;99631.66;;;20.35;100.00
56014;BME280;41893;55.868;37.632;2022-07-11T03:37:57;99630.84;;;20.35;100.00
56014;BME280;41893;55.868;37.632;2022-07-11T03:40:22;99625.66;;;20.33;100.00
56014;BME280;41893;55.868;37.632;2022-07-11T03:42:48;99626.78;;;20.32;100.00
56014;BME280;41893;55.868;37.632;2022-07-11T03:45:14;99632.47;;;20.36;100.00
56014;BME280;41893;55.868;37.632;2022-07-11T03:47:39;99626.13;;;20.44;100.00
56014;BME280;41893;55.868;37.632;2022-07-11T03:50:05;99628.91;;;20.44;100.00
56014;BME280;41893;55.868;37.632;2022-07-11T03:52:32;99629.38;;;20.46;100.00
56014;BME280;41893;55.868;37.632;2022-07-11T03:54:58;99624.53;;;20.43;100.00
56014;BME280;41893;55.868;37.632;2022-07-11T03:57:23;99624.75;;;20.59;100.00
56014;BME280;41893;55.868;37.632;2022-07-11T03:59:49;99631.19;;;20.71;100.00
56014;BME280;41893;55.868;37.632;2022-07-11T04:02:15;99619.53;;;20.66;100.00
56014;BME280;41893;55.868;37.632;2022-07-11T04:04:41;99636.88;;;20.66;100.00
56014;BME280;41893;55.868;37.632;2022-07-11T04:07:06;99634.78;;;20.63;100.00
56014;BME280;41893;55.868;37.632;2022-07-11T04:09:32;99634.28;;;20.70;100.00
56014;BME280;41893;55.868;37.632;2022-07-11T04:11:58;99634.28;;;20.70;100.00
56014;BME280;41893;55.868;37.632;2022-07-11T04:14:24;99638.31;;;20.73;100.00
56014;BME280;41893;55.868;37.632;2022-07-11T04:16:50;99635.41;;;20.69;100.00
56014;BME280;41893;55.868;37.632;2022-07-11T04:19:17;99635.22;;;20.74;100.00
56014;BME280;41893;55.868;37.632;2022-07-11T04:21:42;99633.13;;;20.71;100.00
56014;BME280;41893;55.868;37.632;2022-07-11T04:24:08;99633.94;;;20.71;100.00
56014;BME280;41893;55.868;37.632;2022-07-11T04:26:34;99635.47;;;20.81;100.00
56014;BME280;41893;55.868;37.632;2022-07-11T04:29:00;99638.38;;;20.85;100.00
56014;BME280;41893;55.868;37.632;2022-07-11T04:31:25;99628.72;;;20.99;100.00
56014;BME280;41893;55.868;37.632;2022-07-11T04:33:51;99614.47;;;20.97;100.00
56014;BME280;41893;55.868;37.632;2022-07-11T04:36:17;99633.34;;;21.08;100.00
56014;BME280;41893;55.868;37.632;2022-07-11T04:38:43;99632.22;;;21.09;100.00
56014;BME280;41893;55.868;37.632;2022-07-11T04:41:11;99625.84;;;21.17;100.00
56014;BME280;41893;55.868;37.632;2022-07-11T04:43:37;99629.72;;;21.24;100.00
56014;BME280;41893;55.868;37.632;2022-07-11T04:46:03;99622.91;;;21.22;100.00
56014;BME280;41893;55.868;37.632;2022-07-11T04:48:31;99630.09;;;21.35;100.00
56014;BME280;41893;55.868;37.632;2022-07-11T04:50:57;99612.22;;;21.53;100.00
56014;BME280;41893;55.868;37.632;2022-07-11T04:53:23;99624.72;;;21.38;100.00
56014;BME280;41893;55.868;37.632;2022-07-11T04:55:49;99603.63;;;21.34;100.00
56014;BME280;41893;55.868;37.632;2022-07-11T04:58:15;99615.09;;;21.57;100.00
56014;BME280;41893;55.868;37.632;2022-07-11T05:00:41;99601.63;;;21.55;100.00
56014;BME280;41893;55.868;37.632;2022-07-11T05:03:07;99615.25;;;21.60;100.00
56014;BME280;41893;55.868;37.632;2022-07-11T05:05:32;99583.69;;;21.49;100.00
56014;BME280;41893;55.868;37.632;2022-07-11T05:07:59;99586.69;;;21.56;100.00
56014;BME280;41893;55.868;37.632;2022-07-11T05:10:24;99598.00;;;21.63;100.00
56014;BME280;41893;55.868;37.632;2022-07-11T05:12:50;99581.09;;;21.65;100.00
56014;BME280;41893;55.868;37.632;2022-07-11T05:15:16;99590.66;;;21.80;100.00
56014;BME280;41893;55.868;37.632;2022-07-11T05:17:42;99586.06;;;21.84;100.00
56014;BME280;41893;55.868;37.632;2022-07-11T05:20:07;99577.31;;;21.82;100.00
56014;BME280;41893;55.868;37.632;2022-07-11T05:22:33;99577.72;;;22.04;100.00
56014;BME280;41893;55.868;37.632;2022-07-11T05:24:59;99568.19;;;22.14;100.00
56014;BME280;41893;55.868;37.632;2022-07-11T05:27:25;99574.28;;;22.32;100.00
56014;BME280;41893;55.868;37.632;2022-07-11T05:29:50;99573.59;;;22.35;100.00
56014;BME280;41893;55.868;37.632;2022-07-11T05:32:16;99578.56;;;22.42;100.00
56014;BME280;41893;55.868;37.632;2022-07-11T05:34:42;99572.81;;;22.47;100.00
56014;BME280;41893;55.868;37.632;2022-07-11T05:37:07;99557.91;;;22.63;100.00
56014;BME280;41893;55.868;37.632;2022-07-11T05:39:33;99557.56;;;22.65;100.00
56014;BME280;41893;55.868;37.632;2022-07-11T05:41:59;99554.56;;;22.70;100.00
56014;BME280;41893;55.868;37.632;2022-07-11T05:44:25;99563.53;;;22.91;100.00
56014;BME280;41893;55.868;37.632;2022-07-11T05:46:50;99548.56;;;22.92;100.00
56014;BME280;41893;55.868;37.632;2022-07-11T05:49:16;99540.72;;;22.94;100.00
56014;BME280;41893;55.868;37.632;2022-07-11T05:51:42;99549.16;;;23.14;100.00
56014;BME280;41893;55.868;37.632;2022-07-11T05:54:08;99551.09;;;23.25;100.00
56014;BME280;41893;55.868;37.632;2022-07-11T05:56:34;99544.31;;;23.11;100.00
56014;BME280;41893;55.868;37.632;2022-07-11T05:58:59;99549.47;;;22.96;100.00
56014;BME280;41893;55.868;37.632;2022-07-11T06:01:25;99550.28;;;22.97;100.00
56014;BME280;41893;55.868;37.632;2022-07-11T06:03:52;99557.22;;;23.19;100.00
56014;BME280;41893;55.868;37.632;2022-07-11T06:06:18;99559.94;;;23.31;100.00
56014;BME280;41893;55.868;37.632;2022-07-11T06:08:44;99556.00;;;23.32;100.00
56014;BME280;41893;55.868;37.632;2022-07-11T06:11:11;99540.53;;;23.31;100.00
56014;BME280;41893;55.868;37.632;2022-07-11T06:13:38;99544.44;;;23.42;100.00
56014;BME280;41893;55.868;37.632;2022-07-11T06:16:05;99547.81;;;23.63;100.00
56014;BME280;41893;55.868;37.632;2022-07-11T06:18:33;99546.59;;;23.49;100.00
56014;BME280;41893;55.868;37.632;2022-07-11T06:20:59;99540.31;;;23.80;100.00
56014;BME280;41893;55.868;37.632;2022-07-11T06:23:25;99534.84;;;23.83;100.00
56014;BME280;41893;55.868;37.632;2022-07-11T06:25:51;99541.84;;;23.93;100.00
56014;BME280;41893;55.868;37.632;2022-07-11T06:28:17;99540.41;;;23.99;100.00
56014;BME280;41893;55.868;37.632;2022-07-11T06:30:42;99541.03;;;24.08;100.00
56014;BME280;41893;55.868;37.632;2022-07-11T06:33:08;99537.19;;;24.13;100.00
56014;BME280;41893;55.868;37.632;2022-07-11T06:35:34;99533.88;;;24.23;100.00
56014;BME280;41893;55.868;37.632;2022-07-11T06:38:00;99540.13;;;24.35;100.00
56014;BME280;41893;55.868;37.632;2022-07-11T06:40:26;99536.00;;;24.45;100.00
56014;BME280;41893;55.868;37.632;2022-07-11T06:42:51;99516.50;;;24.41;100.00
56014;BME280;41893;55.868;37.632;2022-07-11T06:45:17;99525.34;;;24.47;100.00
56014;BME280;41893;55.868;37.632;2022-07-11T06:47:43;99521.56;;;24.55;100.00
56014;BME280;41893;55.868;37.632;2022-07-11T06:50:09;99521.75;;;24.82;100.00
56014;BME280;41893;55.868;37.632;2022-07-11T06:52:35;99515.25;;;24.74;100.00
56014;BME280;41893;55.868;37.632;2022-07-11T06:55:01;99511.97;;;24.88;100.00
56014;BME280;41893;55.868;37.632;2022-07-11T06:57:26;99515.00;;;24.98;100.00
56014;BME280;41893;55.868;37.632;2022-07-11T06:59:52;99509.50;;;25.02;100.00
56014;BME280;41893;55.868;37.632;2022-07-11T07:02:18;99510.31;;;25.02;100.00
56014;BME280;41893;55.868;37.632;2022-07-11T07:04:44;99507.28;;;25.30;96.91
56014;BME280;41893;55.868;37.632;2022-07-11T07:07:09;99506.06;;;25.28;95.14
56014;BME280;41893;55.868;37.632;2022-07-11T07:09:35;99497.66;;;25.24;96.26
56014;BME280;41893;55.868;37.632;2022-07-11T07:12:01;99499.19;;;25.41;95.38
56014;BME280;41893;55.868;37.632;2022-07-11T07:14:27;99499.50;;;25.82;91.86
56014;BME280;41893;55.868;37.632;2022-07-11T07:16:52;99494.84;;;26.12;91.87
56014;BME280;41893;55.868;37.632;2022-07-11T07:19:18;99479.25;;;26.30;91.11
56014;BME280;41893;55.868;37.632;2022-07-11T07:21:44;99483.16;;;26.52;90.19
56014;BME280;41893;55.868;37.632;2022-07-11T07:24:10;99484.84;;;26.60;89.13
56014;BME280;41893;55.868;37.632;2022-07-11T07:26:35;99483.91;;;26.79;87.09
56014;BME280;41893;55.868;37.632;2022-07-11T07:29:01;99482.97;;;26.68;89.36
56014;BME280;41893;55.868;37.632;2022-07-11T07:31:27;99484.63;;;27.02;85.37
56014;BME280;41893;55.868;37.632;2022-07-11T07:33:52;99476.22;;;26.99;86.75
56014;BME280;41893;55.868;37.632;2022-07-11T07:36:18;99483.53;;;27.10;84.44
56014;BME280;41893;55.868;37.632;2022-07-11T07:38:44;99480.63;;;27.37;82.92
56014;BME280;41893;55.868;37.632;2022-07-11T07:41:13;99477.56;;;27.49;83.92
56014;BME280;41893;55.868;37.632;2022-07-11T07:43:39;99475.47;;;27.39;82.18
56014;BME280;41893;55.868;37.632;2022-07-11T07:46:06;99473.16;;;27.44;79.34
56014;BME280;41893;55.868;37.632;2022-07-11T07:48:35;99468.84;;;27.54;78.06
56014;BME280;41893;55.868;37.632;2022-07-11T07:51:01;99460.59;;;27.61;76.48
56014;BME280;41893;55.868;37.632;2022-07-11T07:53:26;99467.34;;;27.60;76.92
56014;BME280;41893;55.868;37.632;2022-07-11T07:55:52;99454.16;;;27.57;76.19
56014;BME280;41893;55.868;37.632;2022-07-11T07:58:18;99454.41;;;27.86;75.42
56014;BME280;41893;55.868;37.632;2022-07-11T08:00:44;99461.25;;;27.92;72.24
56014;BME280;41893;55.868;37.632;2022-07-11T08:03:28;99457.25;;;27.89;71.65
56014;BME280;41893;55.868;37.632;2022-07-11T08:05:53;99454.28;;;28.19;70.99
56014;BME280;41893;55.868;37.632;2022-07-11T08:08:20;99450.56;;;28.66;69.65
56014;BME280;41893;55.868;37.632;2022-07-11T08:10:46;99453.19;;;29.18;66.90
56014;BME280;41893;55.868;37.632;2022-07-11T08:13:12;99457.50;;;29.01;65.79
56014;BME280;41893;55.868;37.632;2022-07-11T08:15:37;99454.66;;;28.87;66.45
56014;BME280;41893;55.868;37.632;2022-07-11T08:18:03;99449.66;;;29.53;64.24
56014;BME280;41893;55.868;37.632;2022-07-11T08:20:29;99435.97;;;30.61;58.57
56014;BME280;41893;55.868;37.632;2022-07-11T08:23:02;99437.84;;;32.07;51.29
56014;BME280;41893;55.868;37.632;2022-07-11T08:25:30;99446.59;;;33.45;45.98
56014;BME280;41893;55.868;37.632;2022-07-11T08:27:56;99422.59;;;34.54;41.34
56014;BME280;41893;55.868;37.632;2022-07-11T08:30:22;99425.63;;;35.02;39.81
56014;BME280;41893;55.868;37.632;2022-07-11T08:32:48;99422.22;;;35.79;37.36
56014;BME280;41893;55.868;37.632;2022-07-11T08:35:13;99421.38;;;36.40;35.39
56014;BME280;41893;55.868;37.632;2022-07-11T08:37:42;99421.59;;;36.17;35.97
56014;BME280;41893;55.868;37.632;2022-07-11T08:40:09;99419.16;;;36.77;34.29
56014;BME280;41893;55.868;37.632;2022-07-11T08:42:45;99402.50;;;37.33;33.03
56014;BME280;41893;55.868;37.632;2022-07-11T08:45:15;99402.47;;;37.46;31.56
56014;BME280;41893;55.868;37.632;2022-07-11T08:47:42;99412.31;;;37.67;31.04
56014;BME280;41893;55.868;37.632;2022-07-11T08:50:12;99410.00;;;37.62;30.74
56014;BME280;41893;55.868;37.632;2022-07-11T08:52:38;99404.59;;;37.80;30.16
56014;BME280;41893;55.868;37.632;2022-07-11T08:55:05;99411.16;;;37.01;30.86
56014;BME280;41893;55.868;37.632;2022-07-11T08:57:37;99402.81;;;35.82;31.42
56014;BME280;41893;55.868;37.632;2022-07-11T09:00:05;99377.66;;;34.86;33.32
56014;BME280;41893;55.868;37.632;2022-07-11T09:02:33;99390.69;;;34.96;34.26
56014;BME280;41893;55.868;37.632;2022-07-11T09:05:02;99385.97;;;34.54;34.85
56014;BME280;41893;55.868;37.632;2022-07-11T09:07:32;99396.59;;;34.03;35.59
56014;BME280;41893;55.868;37.632;2022-07-11T09:09:57;99394.94;;;34.49;35.12
56014;BME280;41893;55.868;37.632;2022-07-11T09:12:24;99389.75;;;34.24;35.97
56014;BME280;41893;55.868;37.632;2022-07-11T09:14:51;99381.75;;;33.56;36.68
56014;BME280;41893;55.868;37.632;2022-07-11T09:17:28;99390.78;;;32.90;37.63
56014;BME280;41893;55.868;37.632;2022-07-11T09:19:55;99404.16;;;33.09;38.79
56014;BME280;41893;55.868;37.632;2022-07-11T09:22:21;99379.88;;;32.92;38.12
56014;BME280;41893;55.868;37.632;2022-07-11T09:25:08;99394.50;;;33.10;37.83
56014;BME280;41893;55.868;37.632;2022-07-11T09:27:55;99388.28;;;32.65;37.58
56014;BME280;41893;55.868;37.632;2022-07-11T09:30:29;99396.94;;;32.06;39.70
56014;BME280;41893;55.868;37.632;2022-07-11T09:32:56;99388.88;;;32.11;39.37
56014;BME280;41893;55.868;37.632;2022-07-11T09:35:22;99379.56;;;31.81;40.72
56014;BME280;41893;55.868;37.632;2022-07-11T09:37:48;99376.28;;;31.89;41.42
56014;BME280;41893;55.868;37.632;2022-07-11T09:40:15;99376.91;;;32.04;42.36
56014;BME280;41893;55.868;37.632;2022-07-11T09:42:50;99375.63;;;32.12;41.77
56014;BME280;41893;55.868;37.632;2022-07-11T09:45:18;99375.94;;;32.21;41.94
56014;BME280;41893;55.868;37.632;2022-07-11T09:50:10;99373.00;;;31.94;42.08
56014;BME280;41893;55.868;37.632;2022-07-11T09:52:36;99368.13;;;31.57;42.41
56014;BME280;41893;55.868;37.632;2022-07-11T09:55:02;99379.19;;;31.23;43.69
56014;BME280;41893;55.868;37.632;2022-07-11T09:57:35;99376.50;;;31.13;44.06
56014;BME280;41893;55.868;37.632;2022-07-11T10:00:07;99371.72;;;31.02;44.29
56014;BME280;41893;55.868;37.632;2022-07-11T10:02:33;99363.69;;;31.04;42.36
56014;BME280;41893;55.868;37.632;2022-07-11T10:05:00;99356.38;;;31.25;42.58
56014;BME280;41893;55.868;37.632;2022-07-11T10:07:28;99354.25;;;31.39;41.96
56014;BME280;41893;55.868;37.632;2022-07-11T10:09:54;99363.19;;;31.72;43.15
56014;BME280;41893;55.868;37.632;2022-07-11T10:12:21;99358.63;;;31.92;40.36
56014;BME280;41893;55.868;37.632;2022-07-11T10:14:48;99348.25;;;31.86;41.63
56014;BME280;41893;55.868;37.632;2022-07-11T10:19:53;99347.94;;;32.14;40.98
56014;BME280;41893;55.868;37.632;2022-07-11T10:22:29;99333.66;;;31.98;37.91
56014;BME280;41893;55.868;37.632;2022-07-11T10:25:04;99314.19;;;32.21;37.15
56014;BME280;41893;55.868;37.632;2022-07-11T10:30:46;99336.84;;;32.00;36.59
56014;BME280;41893;55.868;37.632;2022-07-11T10:33:13;99336.72;;;32.14;37.40
56014;BME280;41893;55.868;37.632;2022-07-11T10:35:44;99348.66;;;32.22;35.74
56014;BME280;41893;55.868;37.632;2022-07-11T10:38:11;99337.28;;;32.36;36.91
56014;BME280;41893;55.868;37.632;2022-07-11T10:43:11;99341.25;;;32.38;34.97
56014;BME280;41893;55.868;37.632;2022-07-11T10:45:53;99335.38;;;32.26;35.52
56014;BME280;41893;55.868;37.632;2022-07-11T10:48:19;99335.16;;;32.09;37.77
56014;BME280;41893;55.868;37.632;2022-07-11T10:50:46;99318.97;;;32.24;37.74
56014;BME280;41893;55.868;37.632;2022-07-11T10:53:21;99327.69;;;32.33;38.68
56014;BME280;41893;55.868;37.632;2022-07-11T10:59:02;99325.78;;;32.20;37.30
56014;BME280;41893;55.868;37.632;2022-07-11T11:01:32;99318.13;;;32.27;38.20
56014;BME280;41893;55.868;37.632;2022-07-11T11:15:56;99322.03;;;32.37;37.09
56014;BME280;41893;55.868;37.632;2022-07-11T11:26:20;99325.00;;;32.53;34.40
56014;BME280;41893;55.868;37.632;2022-07-11T11:28:57;99323.28;;;32.63;36.10
56014;BME280;41893;55.868;37.632;2022-07-11T11:31:25;99320.50;;;32.59;33.85
56014;BME280;41893;55.868;37.632;2022-07-11T11:33:51;99313.84;;;32.46;33.05
56014;BME280;41893;55.868;37.632;2022-07-11T11:36:18;99307.22;;;32.63;33.93
56014;BME280;41893;55.868;37.632;2022-07-11T11:38:45;99293.72;;;32.51;34.44
56014;BME280;41893;55.868;37.632;2022-07-11T11:41:27;99301.97;;;32.65;34.92
56014;BME280;41893;55.868;37.632;2022-07-11T11:43:56;99306.44;;;32.63;34.39
56014;BME280;41893;55.868;37.632;2022-07-11T11:46:32;99295.69;;;32.85;32.98
56014;BME280;41893;55.868;37.632;2022-07-11T11:49:02;99306.94;;;32.85;32.91
56014;BME280;41893;55.868;37.632;2022-07-11T11:51:30;99309.06;;;32.73;31.53
56014;BME280;41893;55.868;37.632;2022-07-11T11:54:01;99305.47;;;32.73;32.04
56014;BME280;41893;55.868;37.632;2022-07-11T11:56:30;99312.44;;;32.92;32.90
56014;BME280;41893;55.868;37.632;2022-07-11T11:59:08;99283.09;;;32.93;33.13
56014;BME280;41893;55.868;37.632;2022-07-11T12:01:41;99300.91;;;33.09;31.68
56014;BME280;41893;55.868;37.632;2022-07-11T12:04:09;99295.28;;;33.09;32.04
56014;BME280;41893;55.868;37.632;2022-07-11T12:06:38;99308.84;;;32.91;31.80
56014;BME280;41893;55.868;37.632;2022-07-11T12:09:23;99307.44;;;32.45;30.77
56014;BME280;41893;55.868;37.632;2022-07-11T12:12:09;99315.56;;;32.67;30.83
56014;BME280;41893;55.868;37.632;2022-07-11T12:14:54;99302.63;;;32.76;30.85
56014;BME280;41893;55.868;37.632;2022-07-11T12:17:25;99301.25;;;32.88;32.66
56014;BME280;41893;55.868;37.632;2022-07-11T12:19:52;99308.72;;;32.98;31.22
56014;BME280;41893;55.868;37.632;2022-07-11T12:22:18;99289.41;;;33.00;29.49
56014;BME280;41893;55.868;37.632;2022-07-11T12:24:49;99300.59;;;33.31;30.98
56014;BME280;41893;55.868;37.632;2022-07-11T12:27:23;99295.75;;;33.31;31.18
56014;BME280;41893;55.868;37.632;2022-07-11T12:29:50;99298.38;;;33.42;32.76
56014;BME280;41893;55.868;37.632;2022-07-11T12:32:20;99298.47;;;33.38;31.28
56014;BME280;41893;55.868;37.632;2022-07-11T12:34:50;99295.44;;;33.49;31.11
56014;BME280;41893;55.868;37.632;2022-07-11T12:37:20;99297.03;;;33.27;30.39
56014;BME280;41893;55.868;37.632;2022-07-11T12:39:55;99298.34;;;33.19;29.90
56014;BME280;41893;55.868;37.632;2022-07-11T12:42:31;99309.84;;;32.77;29.70
56014;BME280;41893;55.868;37.632;2022-07-11T12:45:08;99303.06;;;32.71;32.23
56014;BME280;41893;55.868;37.632;2022-07-11T12:47:36;99310.63;;;32.47;31.98
56014;BME280;41893;55.868;37.632;2022-07-11T12:50:21;99319.38;;;32.19;31.47
56014;BME280;41893;55.868;37.632;2022-07-11T12:52:50;99344.28;;;31.79;31.26
56014;BME280;41893;55.868;37.632;2022-07-11T12:55:34;99305.91;;;31.69;31.47
56014;BME280;41893;55.868;37.632;2022-07-11T13:00:36;99328.47;;;31.55;31.80
56014;BME280;41893;55.868;37.632;2022-07-11T13:03:06;99305.38;;;31.40;31.92
56014;BME280;41893;55.868;37.632;2022-07-11T13:05:51;99331.34;;;31.48;31.84
56014;BME280;41893;55.868;37.632;2022-07-11T13:11:16;99322.84;;;31.59;33.65
56014;BME280;41893;55.868;37.632;2022-07-11T13:13:43;99324.13;;;31.47;33.31
56014;BME280;41893;55.868;37.632;2022-07-11T13:16:10;99327.50;;;31.28;32.82
56014;BME280;41893;55.868;37.632;2022-07-11T13:18:36;99324.69;;;31.31;32.55
56014;BME280;41893;55.868;37.632;2022-07-11T13:21:03;99335.13;;;31.27;33.37
56014;BME280;41893;55.868;37.632;2022-07-11T13:23:29;99333.91;;;31.28;34.20
56014;BME280;41893;55.868;37.632;2022-07-11T13:25:56;99345.09;;;31.35;33.49
56014;BME280;41893;55.868;37.632;2022-07-11T13:28:22;99345.69;;;31.57;33.60
56014;BME280;41893;55.868;37.632;2022-07-11T13:30:51;99315.34;;;31.90;33.49
56014;BME280;41893;55.868;37.632;2022-07-11T13:33:18;99335.66;;;32.01;33.54
56014;BME280;41893;55.868;37.632;2022-07-11T13:35:44;99324.13;;;31.92;32.96
56014;BME280;41893;55.868;37.632;2022-07-11T13:38:11;99318.53;;;31.92;34.54
56014;BME280;41893;55.868;37.632;2022-07-11T13:40:37;99327.53;;;32.10;33.08
56014;BME280;41893;55.868;37.632;2022-07-11T13:43:03;99319.78;;;32.21;33.24
56014;BME280;41893;55.868;37.632;2022-07-11T13:45:29;99312.81;;;31.99;32.41
56014;BME280;41893;55.868;37.632;2022-07-11T13:47:56;99325.09;;;31.74;33.45
56014;BME280;41893;55.868;37.632;2022-07-11T13:50:22;99305.09;;;31.72;34.50